GW2259 Weather Reports


Display with metric or nautical units.
time (UTC)temp
F
wind
direction
speed
MPH
gust
MPH
rain 1hr
in
rain 24hr
in
rain mn
in
humidity
%
barometer
mb
20240224165519 68 162 7.0 11.0 0.00 0.00 0.00 34 1022.9
20240224165016 67 131 7.0 13.0 0.00 0.00 0.00 34 1023.0
20240224164519 67 146 8.0 13.0 0.00 0.00 0.00 35 1023.0
20240224164017 67 205 7.0 11.0 0.00 0.00 0.00 37 1023.0
20240224163516 66 160 7.0 12.0 0.00 0.00 0.00 36 1023.0
20240224163018 66 169 8.0 12.0 0.00 0.00 0.00 36 1023.1
20240224162519 66 140 8.0 12.0 0.00 0.00 0.00 36 1023.0
20240224162016 66 145 6.0 11.0 0.00 0.00 0.00 36 1023.0
20240224161517 65 181 7.0 13.0 0.00 0.00 0.00 38 1023.1
20240224161018 65 187 8.0 13.0 0.00 0.00 0.00 36 1023.1
20240224160516 65 160 8.0 13.0 0.00 0.00 0.00 36 1023.1
20240224160030 65 136 8.0 13.0 0.00 0.00 0.00 37 1023.1
20240224155518 64 128 8.0 13.0 0.00 0.00 0.00 37 1023.1
20240224155016 64 186 8.0 13.0 0.00 0.00 0.00 36 1023.2
20240224154521 64 135 7.0 11.0 0.00 0.00 0.00 36 1023.2
20240224154017 64 166 7.0 11.0 0.00 0.00 0.00 37 1023.4
20240224153518 63 160 7.0 11.0 0.00 0.00 0.00 38 1023.4
20240224153017 63 134 7.0 11.0 0.00 0.00 0.00 39 1023.3
20240224152517 62 126 5.0 9.0 0.00 0.00 0.00 43 1023.4
20240224152016 60 135 4.0 9.0 0.00 0.00 0.00 47 1023.4
20240224151532 57 226 1.0 3.0 0.00 0.00 0.00 55 1023.3
20240224151016 55 0 0.0 0.0 0.00 0.00 0.00 62 1023.4
20240224150516 53 0 0.0 0.0 0.00 0.00 0.00 63 1023.3
20240224150021 52 0 0.0 0.0 0.00 0.00 0.00 66 1023.2
20240224145515 51 0 0.0 0.0 0.00 0.00 0.00 68 1023.3
20240224145016 50 0 0.0 1.0 0.00 0.00 0.00 69 1023.2
20240224144518 49 0 0.0 1.0 0.00 0.00 0.00 70 1023.2
20240224144017 48 0 0.0 0.0 0.00 0.00 0.00 70 1023.1
20240224143516 47 0 0.0 1.0 0.00 0.00 0.00 72 1023.1
20240224143021 46 0 0.0 1.0 0.00 0.00 0.00 74 1023.1
20240224142516 45 252 0.0 2.0 0.00 0.00 0.00 75 1023.0
20240224142020 44 245 0.0 2.0 0.00 0.00 0.00 76 1022.9
20240224141522 43 259 1.0 1.0 0.00 0.00 0.00 77 1023.0
20240224141021 42 260 1.0 1.0 0.00 0.00 0.00 77 1023.0
20240224140522 42 267 1.0 1.0 0.00 0.00 0.00 78 1022.9
20240224140021 41 257 0.0 3.0 0.00 0.00 0.00 79 1022.8
20240224135520 40 235 1.0 3.0 0.00 0.00 0.00 79 1022.8
20240224135016 40 236 1.0 2.0 0.00 0.00 0.00 79 1022.6
20240224134517 40 218 1.0 2.0 0.00 0.00 0.00 80 1022.6
20240224134020 39 239 0.0 2.0 0.00 0.00 0.00 81 1022.6
20240224133516 39 240 0.0 2.0 0.00 0.00 0.00 82 1022.6
20240224133017 38 238 1.0 3.0 0.00 0.00 0.00 82 1022.6
20240224132521 38 240 1.0 3.0 0.00 0.00 0.00 83 1022.5
20240224132017 38 262 1.0 3.0 0.00 0.00 0.00 83 1022.4
20240224131519 38 239 2.0 3.0 0.00 0.00 0.00 83 1022.4
20240224131016 38 234 2.0 3.0 0.00 0.00 0.00 83 1022.3
20240224130516 38 239 1.0 3.0 0.00 0.00 0.00 83 1022.3
20240224130019 38 221 1.0 3.0 0.00 0.00 0.00 83 1022.2
20240224125516 38 241 1.0 3.0 0.00 0.00 0.00 83 1022.3
20240224125016 38 231 1.0 3.0 0.00 0.00 0.00 83 1022.2
20240224124522 38 215 1.0 2.0 0.00 0.00 0.00 83 1022.2
20240224124015 38 238 1.0 2.0 0.00 0.00 0.00 83 1022.1
20240224123516 38 0 0.0 1.0 0.00 0.00 0.00 83 1022.0
20240224123024 38 0 0.0 3.0 0.00 0.00 0.00 83 1022.0
20240224122516 38 0 0.0 3.0 0.00 0.00 0.00 83 1022.0
20240224122015 38 246 1.0 3.0 0.00 0.00 0.00 83 1021.9
20240224121522 38 246 0.0 1.0 0.00 0.00 0.00 83 1021.9
20240224121015 38 250 0.0 1.0 0.00 0.00 0.00 83 1021.8
20240224120515 38 0 0.0 1.0 0.00 0.00 0.00 83 1021.8
20240224120017 38 0 0.0 1.0 0.00 0.00 0.00 82 1021.8
20240224115522 38 0 0.0 1.0 0.00 0.00 0.00 82 1021.7
20240224115016 38 233 0.0 1.0 0.00 0.00 0.00 83 1021.7
20240224114536 38 0 0.0 0.0 0.00 0.00 0.00 83 1021.7
20240224114015 38 0 0.0 0.0 0.00 0.00 0.00 82 1021.6
20240224113518 38 0 0.0 1.0 0.00 0.00 0.00 82 1021.5
20240224113025 38 0 0.0 1.0 0.00 0.00 0.00 82 1021.6
20240224112517 39 0 0.0 1.0 0.00 0.00 0.00 82 1021.6
20240224112017 39 226 0.0 0.0 0.00 0.00 0.00 82 1021.5
20240224111517 39 0 0.0 0.0 0.00 0.00 0.00 82 1021.4
20240224111019 39 0 0.0 0.0 0.00 0.00 0.00 82 1021.5
20240224110516 39 0 0.0 0.0 0.00 0.00 0.00 81 1021.5
20240224110019 39 0 0.0 1.0 0.00 0.00 0.00 81 1021.6
20240224105515 39 0 0.0 2.0 0.00 0.00 0.00 81 1021.5
20240224105019 39 217 1.0 2.0 0.00 0.00 0.00 81 1021.6
20240224104516 39 216 0.0 1.0 0.00 0.00 0.00 81 1021.4
20240224104016 39 0 0.0 1.0 0.00 0.00 0.00 80 1021.5
20240224103516 40 0 0.0 2.0 0.00 0.00 0.00 80 1021.6
20240224103035 40 0 0.0 2.0 0.00 0.00 0.00 80 1021.5
20240224102515 40 207 0.0 1.0 0.00 0.00 0.00 80 1021.6
20240224102017 39 0 0.0 0.0 0.00 0.00 0.00 80 1021.6
20240224101519 39 0 0.0 0.0 0.00 0.00 0.00 79 1021.5
20240224101016 39 0 0.0 0.0 0.00 0.00 0.00 79 1021.5
20240224100516 40 0 0.0 0.0 0.00 0.00 0.00 78 1021.5
20240224100018 40 0 0.0 0.0 0.00 0.00 0.00 78 1021.4
20240224095519 40 0 0.0 0.0 0.00 0.00 0.00 78 1021.3
20240224095016 40 0 0.0 0.0 0.00 0.00 0.00 77 1021.3
20240224094519 40 0 0.0 0.0 0.00 0.00 0.00 77 1021.2
20240224094019 40 0 0.0 0.0 0.00 0.00 0.00 76 1021.3
20240224093516 41 0 0.0 0.0 0.00 0.00 0.00 77 1021.2
20240224093019 41 0 0.0 0.0 0.00 0.00 0.00 77 1021.2
20240224092516 41 0 0.0 0.0 0.00 0.00 0.00 77 1021.3
20240224092021 41 0 0.0 0.0 0.00 0.00 0.00 76 1021.2
20240224091519 41 0 0.0 0.0 0.00 0.00 0.00 74 1021.2
20240224091015 42 0 0.0 0.0 0.00 0.00 0.00 74 1021.2
20240224090515 42 0 0.0 0.0 0.00 0.00 0.00 75 1021.2
20240224090019 42 0 0.0 0.0 0.00 0.00 0.00 74 1021.2
20240224085515 42 0 0.0 1.0 0.00 0.00 0.00 73 1021.4
20240224085125 43 163 0.0 1.0 0.00 0.00 0.00 72 1021.3
20240224084518 43 152 0.0 0.0 0.00 0.00 0.00 73 1021.4
20240224084016 43 0 0.0 2.0 0.00 0.00 0.00 72 1021.4
20240224083515 43 0 0.0 2.0 0.00 0.00 0.00 72 1021.5
20240224083019 43 187 1.0 3.0 0.00 0.00 0.00 72 1021.5
20240224082516 43 192 2.0 3.0 0.00 0.00 0.00 72 1021.4
20240224082018 44 194 2.0 3.0 0.00 0.00 0.00 73 1021.5
20240224081524 44 183 2.0 3.0 0.00 0.00 0.00 73 1021.4
20240224081017 44 186 2.0 3.0 0.00 0.00 0.00 74 1021.5
20240224080515 44 167 2.0 3.0 0.00 0.00 0.00 75 1021.5
20240224080019 44 0 0.0 0.0 0.00 0.00 0.00 74 1021.4
20240224075520 44 0 0.0 0.0 0.00 0.00 0.00 73 1021.7
20240224075016 44 0 0.0 0.0 0.00 0.00 0.00 74 1021.5
20240224074519 44 0 0.0 0.0 0.00 0.00 0.00 72 1021.6
20240224074016 45 0 0.0 0.0 0.00 0.00 0.00 71 1021.7
20240224073515 45 0 0.0 0.0 0.00 0.00 0.00 71 1021.7
20240224073018 46 0 0.0 0.0 0.00 0.00 0.00 70 1021.7
20240224072516 46 0 0.0 0.0 0.00 0.00 0.00 69 1021.7
20240224072016 46 0 0.0 0.0 0.00 0.00 0.00 69 1021.7
20240224071515 47 0 0.0 0.0 0.00 0.00 0.00 68 1021.6
20240224071016 47 0 0.0 0.0 0.00 0.00 0.00 69 1021.5
20240224070516 47 0 0.0 0.0 0.00 0.00 0.00 68 1021.5
20240224070018 48 0 0.0 0.0 0.00 0.00 0.00 67 1021.6
20240224065515 48 0 0.0 0.0 0.00 0.00 0.00 67 1021.4
20240224065019 48 0 0.0 0.0 0.00 0.00 0.00 66 1021.4
20240224064519 49 0 0.0 0.0 0.00 0.00 0.00 66 1021.4
20240224064020 49 0 0.0 0.0 0.00 0.00 0.00 65 1021.3
20240224063516 49 0 0.0 0.0 0.00 0.00 0.00 65 1021.2
20240224063019 49 0 0.0 0.0 0.00 0.00 0.00 67 1021.3
20240224062516 48 0 0.0 0.0 0.00 0.00 0.00 65 1021.3
20240224062016 49 0 0.0 0.0 0.00 0.00 0.00 64 1021.0
20240224061519 49 0 0.0 0.0 0.00 0.00 0.00 65 1021.1
20240224061016 49 0 0.0 0.0 0.00 0.00 0.00 64 1020.8
20240224060516 50 0 0.0 0.0 0.00 0.00 0.00 64 1020.8
20240224060020 50 0 0.0 0.0 0.00 0.00 0.00 64 1021.0
20240224055519 51 0 0.0 0.0 0.00 0.00 0.00 63 1020.8
20240224055020 51 0 0.0 1.0 0.00 0.00 0.00 61 1020.9
20240224054519 52 0 0.0 3.0 0.00 0.00 0.00 61 1020.9
20240224054015 52 139 1.0 6.0 0.00 0.00 0.00 60 1020.9
20240224053515 52 105 2.0 7.0 0.00 0.00 0.00 60 1020.9
20240224053024 52 148 3.0 7.0 0.00 0.00 0.00 62 1020.9
20240224052517 52 173 4.0 7.0 0.00 0.00 0.00 63 1021.0
20240224052016 51 163 1.0 4.0 0.00 0.00 0.00 62 1020.7
20240224051526 51 144 2.0 4.0 0.00 0.00 0.00 63 1020.5
20240224051018 52 177 2.0 3.0 0.00 0.00 0.00 63 1020.6
20240224050516 52 132 1.0 3.0 0.00 0.00 0.00 62 1020.5
20240224050026 52 27 2.0 3.0 0.00 0.00 0.00 61 1020.5
20240224045516 52 18 2.0 3.0 0.00 0.00 0.00 60 1020.5
20240224045016 52 17 1.0 2.0 0.00 0.00 0.00 60 1020.6
20240224044519 53 22 2.0 2.0 0.00 0.00 0.00 59 1020.3
20240224044015 53 51 1.0 2.0 0.00 0.00 0.00 57 1020.5
20240224043516 53 123 0.0 1.0 0.00 0.00 0.00 57 1020.7
20240224043020 53 0 0.0 1.0 0.00 0.00 0.00 59 1020.7
20240224042516 53 0 0.0 2.0 0.00 0.00 0.00 60 1020.8
20240224042024 53 123 1.0 2.0 0.00 0.00 0.00 59 1020.8
20240224041519 53 0 0.0 1.0 0.00 0.00 0.00 57 1020.7
20240224041016 54 0 0.0 1.0 0.00 0.00 0.00 58 1021.0
20240224040517 54 0 0.0 1.0 0.00 0.00 0.00 57 1021.0
20240224040026 54 0 0.0 1.0 0.00 0.00 0.00 58 1020.9
20240224035516 54 0 0.0 2.0 0.00 0.00 0.00 57 1020.8
20240224035017 54 0 0.0 2.0 0.00 0.00 0.00 57 1020.7
20240224034520 54 96 2.0 2.0 0.00 0.00 0.00 56 1020.8
20240224034016 53 122 1.0 1.0 0.00 0.00 0.00 60 1020.8
20240224033518 54 0 0.0 1.0 0.00 0.00 0.00 60 1020.8
20240224033018 54 131 0.0 5.0 0.00 0.00 0.00 60 1020.9
20240224032516 54 184 0.0 5.0 0.00 0.00 0.00 58 1021.1
20240224032017 55 183 4.0 5.0 0.00 0.00 0.00 58 1021.2
20240224031519 56 189 1.0 2.0 0.00 0.00 0.00 55 1021.1
20240224031016 57 0 0.0 1.0 0.00 0.00 0.00 50 1020.8
20240224030515 57 0 0.0 2.0 0.00 0.00 0.00 49 1020.8
20240224030026 57 0 0.0 2.0 0.00 0.00 0.00 49 1020.7
20240224025515 57 326 1.0 2.0 0.00 0.00 0.00 48 1020.8
20240224025015 57 0 0.0 0.0 0.00 0.00 0.00 50 1020.6
20240224024519 58 0 0.0 0.0 0.00 0.00 0.00 50 1020.3
20240224024020 59 0 0.0 0.0 0.00 0.00 0.00 46 1020.2
20240224023516 59 0 0.0 0.0 0.00 0.00 0.00 43 1020.2
20240224023020 59 0 0.0 0.0 0.00 0.00 0.00 42 1020.2
20240224022519 59 0 0.0 0.0 0.00 0.00 0.00 42 1020.2
20240224022016 59 0 0.0 0.0 0.00 0.00 0.00 42 1020.1
20240224021517 58 0 0.0 0.0 0.00 0.00 0.00 44 1020.2
20240224021021 58 0 0.0 0.0 0.00 0.00 0.00 45 1020.1
20240224020516 58 0 0.0 0.0 0.00 0.00 0.00 48 1020.2
20240224020027 58 0 0.0 0.0 0.00 0.00 0.00 47 1020.2
20240224015516 58 0 0.0 0.0 0.00 0.00 0.00 46 1020.1
20240224015017 59 0 0.0 0.0 0.00 0.00 0.00 44 1020.1
20240224014517 59 0 0.0 0.0 0.00 0.00 0.00 43 1020.0
20240224014015 59 0 0.0 0.0 0.00 0.00 0.00 42 1020.0
20240224013515 58 0 0.0 0.0 0.00 0.00 0.00 44 1019.8
20240224013027 58 0 0.0 0.0 0.00 0.00 0.00 43 1019.9
20240224012515 59 0 0.0 0.0 0.00 0.00 0.00 44 1019.8
20240224012019 60 0 0.0 0.0 0.00 0.00 0.00 45 1019.8
20240224011523 61 0 0.0 0.0 0.00 0.00 0.00 40 1019.6
20240224011019 61 0 0.0 0.0 0.00 0.00 0.00 39 1019.7
20240224010521 61 0 0.0 0.0 0.00 0.00 0.00 38 1019.7
20240224010022 62 0 0.0 0.0 0.00 0.00 0.00 38 1019.6
20240224005519 62 0 0.0 0.0 0.00 0.00 0.00 37 1019.6
20240224005019 63 0 0.0 0.0 0.00 0.00 0.00 40 1019.5
20240224004526 63 0 0.0 0.0 0.00 0.00 0.00 35 1019.6
20240224004020 63 0 0.0 0.0 0.00 0.00 0.00 37 1019.6
20240224003519 64 0 0.0 0.0 0.00 0.00 0.00 36 1019.5
20240224003046 64 0 0.0 0.0 0.00 0.00 0.00 35 1019.4
20240224002521 64 0 0.0 0.0 0.00 0.00 0.00 34 1019.2
20240224002021 64 0 0.0 0.0 0.00 0.00 0.00 35 1019.0
20240224001520 65 0 0.0 0.0 0.00 0.00 0.00 36 1019.0
20240224001020 65 0 0.0 0.0 0.00 0.00 0.00 35 1019.1
20240224000520 66 0 0.0 0.0 0.00 0.00 0.00 34 1019.0
20240224000024 66 0 0.0 0.0 0.00 0.00 0.00 33 1018.9
20240223235519 67 0 0.0 1.0 0.00 0.00 0.00 33 1018.9
20240223235019 67 0 0.0 1.0 0.00 0.00 0.00 32 1018.8
20240223234519 68 0 0.0 2.0 0.00 0.00 0.00 30 1018.9
20240223234020 68 5 0.0 3.0 0.00 0.00 0.00 28 1018.8
20240223233519 68 4 1.0 3.0 0.00 0.00 0.00 29 1018.8
20240223233020 68 25 1.0 4.0 0.00 0.00 0.00 30 1018.9
20240223232519 68 321 1.0 4.0 0.00 0.00 0.00 28 1018.9
20240223232019 69 324 2.0 4.0 0.00 0.00 0.00 28 1018.7
20240223231520 69 295 1.0 5.0 0.00 0.00 0.00 28 1018.7
20240223231020 69 53 2.0 5.0 0.00 0.00 0.00 28 1018.6
20240223230519 69 65 2.0 7.0 0.00 0.00 0.00 30 1018.5
20240223230019 69 38 3.0 7.0 0.00 0.00 0.00 29 1018.4
20240223225521 69 11 2.0 5.0 0.00 0.00 0.00 28 1018.5
20240223225021 69 341 3.0 5.0 0.00 0.00 0.00 28 1018.4
20240223224535 69 28 2.0 5.0 0.00 0.00 0.00 28 1018.3
20240223224020 69 340 2.0 4.0 0.00 0.00 0.00 28 1018.3
20240223223520 69 53 1.0 4.0 0.00 0.00 0.00 29 1018.3
20240223223020 69 0 2.0 7.0 0.00 0.00 0.00 28 1018.3
20240223222522 69 77 0.0 7.0 0.00 0.00 0.00 28 1018.3
20240223222020 69 92 3.0 8.0 0.00 0.00 0.00 27 1018.4
20240223221520 69 51 4.0 8.0 0.00 0.00 0.00 29 1018.5
20240223221019 69 32 5.0 8.0 0.00 0.00 0.00 28 1018.2
20240223220519 69 93 3.0 8.0 0.00 0.00 0.00 27 1018.3
20240223220024 69 73 3.0 8.0 0.00 0.00 0.00 29 1018.3
20240223215519 69 48 4.0 8.0 0.00 0.00 0.00 28 1018.3
20240223215021 69 27 3.0 7.0 0.00 0.00 0.00 28 1018.3
20240223214521 69 295 4.0 12.0 0.00 0.00 0.00 27 1018.3
20240223214019 70 297 5.0 12.0 0.00 0.00 0.00 27 1018.4
20240223213520 69 67 3.0 6.0 0.00 0.00 0.00 29 1018.5
20240223213019 69 231 2.0 9.0 0.00 0.00 0.00 28 1018.5
20240223212521 69 25 4.0 10.0 0.00 0.00 0.00 28 1018.5
20240223212020 69 6 4.0 10.0 0.00 0.00 0.00 29 1018.5
20240223211523 69 31 4.0 8.0 0.00 0.00 0.00 29 1018.5
20240223211022 69 345 3.0 8.0 0.00 0.00 0.00 28 1018.6
20240223210523 69 65 3.0 10.0 0.00 0.00 0.00 29 1018.6
20240223210027 69 56 5.0 10.0 0.00 0.00 0.00 28 1018.6
20240223205520 69 57 4.0 8.0 0.00 0.00 0.00 30 1018.7
20240223205020 69 30 3.0 13.0 0.00 0.00 0.00 30 1018.7
20240223204519 69 15 4.0 13.0 0.00 0.00 0.00 30 1018.8
20240223204018 69 330 4.0 7.0 0.00 0.00 0.00 30 1018.9
20240223203521 69 285 1.0 9.0 0.00 0.00 0.00 30 1018.9
20240223203022 68 108 2.0 9.0 0.00 0.00 0.00 30 1019.0
20240223202520 68 55 6.0 10.0 0.00 0.00 0.00 31 1019.1
20240223202020 68 30 4.0 11.0 0.00 0.00 0.00 30 1019.3
20240223201521 68 47 6.0 11.0 0.00 0.00 0.00 31 1019.4
20240223201020 68 45 5.0 11.0 0.00 0.00 0.00 31 1019.4
20240223200520 68 128 3.0 12.0 0.00 0.00 0.00 32 1019.4
20240223200022 68 27 4.0 12.0 0.00 0.00 0.00 31 1019.6
20240223195520 68 323 7.0 12.0 0.00 0.00 0.00 30 1019.6
20240223195021 68 33 4.0 10.0 0.00 0.00 0.00 30 1019.6
20240223194524 67 359 4.0 10.0 0.00 0.00 0.00 32 1019.6
20240223194026 67 348 6.0 11.0 0.00 0.00 0.00 31 1019.8
20240223193519 68 356 6.0 11.0 0.00 0.00 0.00 31 1019.9
20240223193019 67 72 4.0 10.0 0.00 0.00 0.00 34 1019.9
20240223192520 67 326 5.0 11.0 0.00 0.00 0.00 30 1019.9
20240223192019 67 20 6.0 11.0 0.00 0.00 0.00 33 1020.0
20240223191519 67 63 4.0 10.0 0.00 0.00 0.00 34 1020.1
20240223191021 67 29 4.0 14.0 0.00 0.00 0.00 33 1020.2
20240223190521 67 48 7.0 14.0 0.00 0.00 0.00 33 1020.5
20240223190020 67 67 8.0 14.0 0.00 0.00 0.00 34 1020.6
20240223185524 66 107 3.0 10.0 0.00 0.00 0.00 34 1020.7
20240223185020 67 339 7.0 11.0 0.00 0.00 0.00 32 1020.9
20240223184524 66 27 6.0 12.0 0.00 0.00 0.00 35 1020.9
20240223184016 66 356 8.0 12.0 0.00 0.00 0.00 33 1020.8
20240223183516 67 49 3.0 11.0 0.00 0.00 0.00 36 1021.0
20240223183023 66 32 7.0 11.0 0.00 0.00 0.00 35 1021.1
20240223182516 65 41 4.0 11.0 0.00 0.00 0.00 36 1021.2
20240223182016 65 19 6.0 12.0 0.00 0.00 0.00 36 1021.2
20240223181519 65 0 5.0 12.0 0.00 0.00 0.00 34 1021.3
20240223181020 65 20 6.0 12.0 0.00 0.00 0.00 35 1021.5
20240223180515 65 44 5.0 11.0 0.00 0.00 0.00 35 1021.4
20240223180035 65 329 7.0 12.0 0.00 0.00 0.00 35 1021.5
20240223175516 64 19 5.0 12.0 0.00 0.00 0.00 36 1021.4
20240223175016 64 44 7.0 13.0 0.00 0.00 0.00 36 1021.6
20240223174522 65 32 7.0 13.0 0.00 0.00 0.00 37 1021.5
20240223174015 64 45 8.0 12.0 0.00 0.00 0.00 36 1021.7
20240223173518 64 66 8.0 13.0 0.00 0.00 0.00 36 1021.8
20240223173024 64 38 8.0 13.0 0.00 0.00 0.00 37 1022.0
20240223172516 64 53 5.0 13.0 0.00 0.00 0.00 38 1021.9
20240223172022 63 60 7.0 13.0 0.00 0.00 0.00 38 1021.9
20240223171520 63 44 8.0 13.0 0.00 0.00 0.00 38 1021.9
20240223171015 63 27 6.0 12.0 0.00 0.00 0.00 40 1022.0
20240223170516 63 64 6.0 12.0 0.00 0.00 0.00 40 1021.9
20240223170021 62 51 7.0 13.0 0.00 0.00 0.00 41 1022.0